Time;durP1;ratioP1;P1;durP2;ratioP2;P2;SDS_P1;SDS_P2;PMS_P1;PMS_P2;Temp;Humidity;BMP_temperature;BMP_pressure;BME280_temperature;BME280_humidity;BME280_pressure;Samples;Min_cycle;Max_cycle;Signal;HPM_P1;HPM_P2
2021/03/14 00:00:27;;;;;;;8.45;2.45;;;5.90;99.90;;;;;;5049467;28;20032;-47
2021/03/14 00:02:52;;;;;;;9.23;2.28;;;5.80;99.90;;;;;;5050040;28;20032;-46
2021/03/14 00:05:18;;;;;;;6.05;2.28;;;5.80;99.90;;;;;;5048955;28;20398;-45
2021/03/14 00:07:44;;;;;;;7.72;2.47;;;5.90;99.90;;;;;;5049560;28;20264;-46
2021/03/14 00:10:10;;;;;;;10.68;2.45;;;5.90;99.90;;;;;;5054499;28;20032;-46
2021/03/14 00:12:36;;;;;;;10.13;2.55;;;5.90;99.90;;;;;;5052892;28;20127;-46
2021/03/14 00:15:02;;;;;;;11.45;2.83;;;5.90;99.90;;;;;;5047237;28;20111;-45
2021/03/14 00:17:27;;;;;;;6.65;2.28;;;5.90;99.90;;;;;;5049671;28;20390;-45
2021/03/14 00:19:53;;;;;;;10.25;2.80;;;5.90;99.90;;;;;;5049014;28;20025;-46
2021/03/14 00:22:18;;;;;;;5.22;2.20;;;5.90;99.90;;;;;;5049496;28;20052;-45
2021/03/14 00:24:44;;;;;;;5.25;2.20;;;5.90;99.90;;;;;;5031296;28;20028;-47
2021/03/14 00:27:09;;;;;;;6.30;2.55;;;5.90;99.90;;;;;;5047678;28;20020;-49
2021/03/14 00:29:35;;;;;;;4.85;2.42;;;5.90;99.90;;;;;;5049064;28;20037;-46
2021/03/14 00:32:02;;;;;;;5.28;2.03;;;6.00;99.90;;;;;;5048746;28;20383;-45
2021/03/14 00:34:28;;;;;;;8.20;2.10;;;6.00;99.90;;;;;;5048545;28;20483;-48
2021/03/14 00:36:54;;;;;;;8.00;2.08;;;6.00;99.90;;;;;;5048173;28;20033;-47
2021/03/14 00:39:20;;;;;;;14.48;3.40;;;6.00;99.90;;;;;;5054079;28;20441;-46
2021/03/14 00:41:45;;;;;;;9.02;2.40;;;6.10;99.90;;;;;;5069012;28;20042;-45
2021/03/14 00:44:11;;;;;;;9.85;2.70;;;6.10;99.90;;;;;;5051688;28;20033;-45
2021/03/14 00:46:36;;;;;;;6.70;3.10;;;6.10;99.90;;;;;;5048683;28;20090;-46
2021/03/14 00:49:02;;;;;;;11.27;3.97;;;6.00;99.90;;;;;;5048490;28;20594;-45
2021/03/14 00:51:27;;;;;;;9.98;2.65;;;6.00;99.90;;;;;;5048732;28;20021;-45
2021/03/14 00:53:53;;;;;;;7.72;2.25;;;6.00;99.90;;;;;;5048531;28;20021;-45
2021/03/14 00:56:19;;;;;;;6.78;2.75;;;6.00;99.90;;;;;;5048249;28;20025;-45
2021/03/14 00:58:44;;;;;;;9.73;2.60;;;5.80;99.90;;;;;;5047481;28;20129;-45
2021/03/14 01:01:10;;;;;;;10.48;3.00;;;5.70;99.90;;;;;;5048868;28;20469;-47
2021/03/14 01:03:35;;;;;;;9.20;2.92;;;5.70;99.90;;;;;;5048277;28;20112;-46
2021/03/14 01:06:01;;;;;;;9.40;3.25;;;5.50;99.90;;;;;;5047876;28;20029;-48
2021/03/14 01:08:27;;;;;;;9.18;3.55;;;5.40;99.90;;;;;;5047206;28;20430;-46
2021/03/14 01:10:52;;;;;;;9.13;3.55;;;5.10;99.90;;;;;;5052207;28;20035;-48
2021/03/14 01:13:18;;;;;;;9.43;3.42;;;5.00;99.90;;;;;;5053499;28;20040;-46
2021/03/14 01:15:44;;;;;;;12.13;2.45;;;4.90;99.90;;;;;;5046134;28;20031;-46
2021/03/14 01:18:11;;;;;;;8.23;2.25;;;4.80;99.90;;;;;;5048438;28;20060;-46
2021/03/14 01:20:36;;;;;;;3.03;1.40;;;4.70;99.90;;;;;;5046698;28;20115;-46
2021/03/14 01:23:02;;;;;;;3.50;1.60;;;4.60;99.90;;;;;;5047108;28;20483;-45
2021/03/14 01:25:27;;;;;;;4.68;1.48;;;4.50;99.90;;;;;;5047855;28;20021;-44
2021/03/14 01:27:53;;;;;;;2.72;1.30;;;4.40;99.90;;;;;;5048112;28;20025;-44
2021/03/14 01:30:20;;;;;;;2.45;1.20;;;4.40;99.90;;;;;;5048340;28;20283;-45
2021/03/14 01:32:46;;;;;;;2.08;1.30;;;4.40;99.90;;;;;;5048254;28;20021;-46
2021/03/14 01:35:13;;;;;;;3.40;1.10;;;4.40;99.90;;;;;;5047152;28;20029;-46
2021/03/14 01:37:38;;;;;;;2.90;1.10;;;4.40;99.90;;;;;;5048197;28;20056;-45
2021/03/14 01:40:05;;;;;;;2.38;1.20;;;4.40;99.90;;;;;;5048185;28;20076;-46
2021/03/14 01:42:32;;;;;;;2.95;0.80;;;4.40;99.90;;;;;;5047844;28;20017;-46
2021/03/14 01:44:58;;;;;;;1.65;0.60;;;4.40;99.90;;;;;;5046518;28;20040;-46
2021/03/14 01:47:51;;;;;;;1.45;0.80;;;4.30;99.90;;;;;;5047327;28;20059;-46
2021/03/14 01:50:22;;;;;;;2.17;0.57;;;4.30;99.90;;;;;;5044996;28;20409;-45
2021/03/14 01:52:49;;;;;;;1.90;0.80;;;4.30;99.90;;;;;;5046660;28;20194;-45
2021/03/14 01:55:19;;;;;;;1.63;1.10;;;4.20;99.90;;;;;;5045586;28;20522;-45
2021/03/14 01:57:46;;;;;;;0.70;0.70;;;4.20;99.90;;;;;;5047954;28;20039;-46
2021/03/14 02:00:18;;;;;;;0.80;0.80;;;4.10;99.90;;;;;;5047790;28;20025;-46
2021/03/14 02:02:44;;;;;;;2.00;1.20;;;4.10;99.90;;;;;;5047352;28;20032;-46
2021/03/14 02:05:12;;;;;;;0.80;0.80;;;4.10;99.90;;;;;;5044819;28;20078;-46
2021/03/14 02:07:40;;;;;;;4.63;0.90;;;4.00;99.90;;;;;;5047438;28;20229;-45
2021/03/14 02:10:06;;;;;;;4.85;0.93;;;4.00;99.90;;;;;;5045396;28;20498;-47
2021/03/14 02:13:10;;;;;;;1.67;0.90;;;4.00;99.90;;;;;;5051447;28;20120;-47
2021/03/14 02:15:39;;;;;;;2.85;0.82;;;4.00;99.90;;;;;;4995304;28;20037;-47
2021/03/14 02:18:07;;;;;;;0.93;0.88;;;4.00;99.90;;;;;;5045912;28;20031;-46
2021/03/14 02:20:35;;;;;;;2.92;1.02;;;4.00;99.90;;;;;;5046880;28;20044;-48
2021/03/14 02:23:34;;;;;;;1.80;1.00;;;4.00;99.90;;;;;;5049825;28;20037;-45
2021/03/14 02:26:17;;;;;;;4.32;0.95;;;4.00;99.90;;;;;;5050277;28;20033;-49
2021/03/14 02:28:43;;;;;;;4.10;1.08;;;4.00;99.90;;;;;;5051538;28;20462;-45
2021/03/14 02:31:09;;;;;;;5.18;1.10;;;4.00;99.90;;;;;;5051719;28;20120;-45
2021/03/14 02:33:38;;;;;;;4.78;1.10;;;4.00;99.90;;;;;;5051845;28;20052;-45
2021/03/14 02:36:06;;;;;;;2.63;1.10;;;4.00;99.90;;;;;;5050722;28;20048;-48
2021/03/14 02:38:33;;;;;;;2.53;1.30;;;4.00;99.90;;;;;;5051814;28;20029;-46
2021/03/14 02:40:59;;;;;;;5.57;1.63;;;4.00;99.90;;;;;;5051496;28;20037;-46
2021/03/14 02:43:26;;;;;;;6.43;1.10;;;3.90;99.90;;;;;;5051743;28;20021;-48
2021/03/14 02:45:53;;;;;;;7.72;1.52;;;4.00;99.90;;;;;;5050413;28;20115;-46
2021/03/14 02:48:20;;;;;;;3.50;1.48;;;4.00;99.90;;;;;;5051275;28;20033;-45
2021/03/14 02:50:46;;;;;;;7.93;2.15;;;3.90;99.90;;;;;;5051067;28;20435;-44
2021/03/14 02:53:14;;;;;;;2.50;1.35;;;4.00;99.90;;;;;;5058641;28;20520;-46
2021/03/14 02:55:41;;;;;;;3.67;1.23;;;4.00;99.90;;;;;;5058420;28;20176;-48
2021/03/14 02:58:09;;;;;;;5.70;1.80;;;4.00;99.90;;;;;;5059551;28;20025;-47
2021/03/14 03:00:36;;;;;;;6.65;1.73;;;3.90;99.90;;;;;;5060465;28;20513;-47
2021/03/14 03:03:04;;;;;;;4.20;1.40;;;4.00;99.90;;;;;;5061571;28;20131;-48
2021/03/14 03:05:30;;;;;;;4.72;1.50;;;4.00;99.90;;;;;;5058393;28;20026;-48
2021/03/14 03:07:57;;;;;;;4.65;1.40;;;4.00;99.90;;;;;;5059351;28;20035;-46
2021/03/14 03:10:29;;;;;;;5.07;1.33;;;3.90;99.90;;;;;;5058426;28;20021;-46
2021/03/14 03:12:58;;;;;;;4.85;1.50;;;4.00;99.90;;;;;;5059776;28;20040;-46
2021/03/14 03:15:25;;;;;;;3.88;1.48;;;4.00;99.90;;;;;;5059037;28;20103;-48
2021/03/14 03:17:51;;;;;;;4.57;1.90;;;4.00;99.90;;;;;;5067140;28;20363;-48
2021/03/14 03:20:17;;;;;;;4.75;1.48;;;3.90;99.90;;;;;;5070766;28;20028;-49
2021/03/14 03:22:43;;;;;;;3.38;1.20;;;3.90;99.90;;;;;;5070730;28;20020;-46
2021/03/14 03:25:09;;;;;;;3.33;1.48;;;3.90;99.90;;;;;;5069407;28;20036;-46
2021/03/14 03:27:36;;;;;;;5.10;1.60;;;3.90;99.90;;;;;;5070025;28;20248;-47
2021/03/14 03:30:05;;;;;;;7.63;1.70;;;3.90;99.90;;;;;;5069459;28;20089;-46
2021/03/14 03:32:30;;;;;;;3.72;1.83;;;3.90;99.90;;;;;;5069870;28;20036;-47
2021/03/14 03:34:56;;;;;;;6.35;1.60;;;4.00;99.90;;;;;;5069788;28;20025;-48
2021/03/14 03:37:21;;;;;;;6.40;2.10;;;4.00;99.90;;;;;;5070749;28;20029;-48
2021/03/14 03:39:47;;;;;;;8.10;2.13;;;4.00;99.90;;;;;;5064061;28;20024;-49
2021/03/14 03:42:18;;;;;;;5.85;2.38;;;4.00;99.90;;;;;;5050472;28;20032;-46
2021/03/14 03:44:43;;;;;;;;;;;4.00;99.90;;;;;;5050429;28;20613;-52
2021/03/14 03:47:12;;;;;;;4.90;2.10;;;4.00;99.90;;;;;;5049694;28;19912;-52
2021/03/14 03:49:39;;;;;;;10.27;2.25;;;4.00;99.90;;;;;;5049605;28;20106;-47
2021/03/14 03:52:05;;;;;;;5.88;2.40;;;4.00;99.90;;;;;;5049824;28;20021;-46
2021/03/14 03:54:31;;;;;;;5.88;2.20;;;4.00;99.90;;;;;;5049903;28;20398;-46
2021/03/14 03:56:58;;;;;;;5.85;2.33;;;4.00;99.90;;;;;;5049435;28;20112;-47
2021/03/14 03:59:25;;;;;;;13.25;2.33;;;4.00;99.90;;;;;;5050392;28;20025;-47
2021/03/14 04:01:52;;;;;;;5.28;1.88;;;4.00;99.90;;;;;;5049714;28;20043;-47
2021/03/14 04:04:19;;;;;;;5.00;1.42;;;4.00;99.90;;;;;;5049967;28;20071;-48
2021/03/14 04:06:45;;;;;;;3.08;1.80;;;4.00;99.90;;;;;;5048819;28;20490;-47
2021/03/14 04:09:11;;;;;;;4.63;1.52;;;4.00;99.90;;;;;;5049330;28;20094;-46
2021/03/14 04:11:41;;;;;;;6.63;1.40;;;4.00;99.90;;;;;;5049228;28;20582;-47
2021/03/14 04:14:09;;;;;;;2.50;1.40;;;4.00;99.90;;;;;;5051274;28;20025;-46
2021/03/14 04:16:37;;;;;;;5.20;1.50;;;4.00;99.90;;;;;;5055952;28;20035;-49
2021/03/14 04:19:04;;;;;;;2.47;1.50;;;4.00;99.90;;;;;;5049583;28;20113;-47
2021/03/14 04:21:31;;;;;;;3.95;1.40;;;4.00;99.90;;;;;;5049803;28;20498;-48
2021/03/14 04:23:57;;;;;;;2.38;1.33;;;3.90;99.90;;;;;;5049744;28;20124;-48
2021/03/14 04:26:23;;;;;;;3.78;1.30;;;3.90;99.90;;;;;;5048601;28;20033;-48
2021/03/14 04:28:51;;;;;;;2.38;1.40;;;3.90;99.90;;;;;;5057691;28;20036;-46
2021/03/14 04:31:18;;;;;;;2.45;1.20;;;3.90;99.90;;;;;;5068970;28;20039;-46
2021/03/14 04:33:44;;;;;;;4.60;1.30;;;3.90;99.90;;;;;;5059235;28;20049;-48
2021/03/14 04:36:12;;;;;;;1.75;1.00;;;3.90;99.90;;;;;;5048687;28;20521;-47
2021/03/14 04:38:40;;;;;;;42.60;3.33;;;3.90;99.90;;;;;;5048667;28;20032;-45
2021/03/14 04:41:06;;;;;;;4.93;1.50;;;3.90;99.90;;;;;;5047609;28;20021;-45
2021/03/14 04:43:32;;;;;;;4.38;1.20;;;3.90;99.90;;;;;;5049373;28;20120;-46
2021/03/14 04:45:59;;;;;;;3.85;1.20;;;3.90;99.90;;;;;;5047746;28;20040;-48
2021/03/14 04:48:24;;;;;;;7.32;1.40;;;3.90;99.90;;;;;;5048718;28;20024;-45
2021/03/14 04:50:53;;;;;;;5.85;1.38;;;3.90;99.90;;;;;;5048034;28;20376;-47
2021/03/14 04:53:20;;;;;;;2.67;1.42;;;3.90;99.90;;;;;;5047607;28;20025;-46
2021/03/14 04:55:47;;;;;;;7.22;1.40;;;3.90;99.90;;;;;;5048086;28;20471;-47
2021/03/14 04:58:16;;;;;;;7.63;1.85;;;3.90;99.90;;;;;;5048488;28;20479;-46
2021/03/14 05:00:42;;;;;;;2.50;1.23;;;3.90;99.90;;;;;;5049101;28;20021;-45
2021/03/14 05:03:11;;;;;;;2.22;1.48;;;3.90;99.90;;;;;;5048927;28;20043;-45
2021/03/14 05:05:42;;;;;;;6.35;1.33;;;3.90;99.90;;;;;;5048403;28;20055;-44
2021/03/14 05:08:10;;;;;;;3.75;1.40;;;3.90;99.90;;;;;;5048386;28;20287;-45
2021/03/14 05:10:38;;;;;;;6.30;1.88;;;4.00;99.90;;;;;;5047678;28;20493;-48
2021/03/14 05:13:04;;;;;;;4.35;1.35;;;4.00;99.90;;;;;;5046597;28;20017;-46
2021/03/14 05:15:30;;;;;;;4.30;1.60;;;4.00;99.90;;;;;;5049952;28;20219;-47
2021/03/14 05:17:56;;;;;;;6.20;1.63;;;3.90;99.90;;;;;;5061716;28;20040;-46
2021/03/14 05:20:21;;;;;;;2.25;1.42;;;3.90;99.90;;;;;;5068101;28;20028;-47
2021/03/14 05:22:49;;;;;;;6.10;1.63;;;3.90;99.90;;;;;;5068359;28;20029;-47
2021/03/14 05:25:16;;;;;;;4.85;1.45;;;3.90;99.90;;;;;;5067541;28;20052;-47
2021/03/14 05:27:49;;;;;;;6.80;1.20;;;3.90;99.90;;;;;;5067781;28;20033;-47
2021/03/14 05:30:19;;;;;;;3.20;1.45;;;3.90;99.90;;;;;;5068212;28;20140;-47
2021/03/14 05:32:44;;;;;;;4.85;1.20;;;3.90;99.90;;;;;;5068331;28;20101;-46
2021/03/14 05:35:10;;;;;;;5.88;1.73;;;3.90;99.90;;;;;;5068197;28;20588;-47
2021/03/14 05:37:36;;;;;;;3.42;1.50;;;3.90;99.90;;;;;;5068091;28;20023;-46
2021/03/14 05:40:03;;;;;;;2.85;1.33;;;3.90;99.90;;;;;;5067704;28;20024;-46
2021/03/14 05:42:29;;;;;;;2.67;1.02;;;3.90;99.90;;;;;;5068410;28;20028;-46
2021/03/14 05:44:56;;;;;;;6.63;2.05;;;4.00;99.90;;;;;;5066338;28;20110;-45
2021/03/14 05:47:22;;;;;;;3.55;1.27;;;3.90;99.90;;;;;;5068480;28;20066;-46
2021/03/14 05:49:47;;;;;;;9.73;1.70;;;4.00;99.90;;;;;;5066276;28;20025;-48
2021/03/14 05:52:17;;;;;;;5.65;1.50;;;3.90;99.90;;;;;;5068328;28;20078;-47
2021/03/14 05:54:44;;;;;;;7.90;2.13;;;3.90;99.90;;;;;;5067470;28;20027;-48
2021/03/14 05:57:10;;;;;;;10.57;2.05;;;3.90;99.90;;;;;;5067320;28;20016;-46
2021/03/14 05:59:36;;;;;;;5.00;1.80;;;4.00;99.90;;;;;;5067983;28;20028;-45
2021/03/14 06:02:03;;;;;;;7.70;1.90;;;4.00;99.90;;;;;;5067033;28;20097;-46
2021/03/14 06:04:30;;;;;;;3.65;1.75;;;4.00;99.90;;;;;;5067583;28;20083;-45
2021/03/14 06:06:55;;;;;;;7.18;2.17;;;4.00;99.90;;;;;;5067027;28;20052;-46
2021/03/14 06:09:21;;;;;;;7.85;1.80;;;4.00;99.90;;;;;;5066464;28;20062;-45
2021/03/14 06:11:47;;;;;;;10.90;2.28;;;4.00;99.90;;;;;;5046953;28;20029;-45
2021/03/14 06:14:12;;;;;;;8.52;2.25;;;4.00;99.90;;;;;;5047792;28;20051;-46
2021/03/14 06:16:38;;;;;;;5.70;1.95;;;4.00;99.90;;;;;;5045998;28;20074;-46
2021/03/14 06:19:04;;;;;;;4.68;2.10;;;4.00;99.90;;;;;;5061322;28;20032;-46
2021/03/14 06:21:32;;;;;;;5.43;1.83;;;4.00;99.90;;;;;;5067277;28;20037;-49
2021/03/14 06:24:08;;;;;;;13.32;2.67;;;4.10;99.90;;;;;;5067135;28;20401;-46
2021/03/14 06:26:48;;;;;;;4.93;1.85;;;4.00;99.90;;;;;;5065537;28;20028;-47
2021/03/14 06:29:16;;;;;;;2.47;1.80;;;4.00;99.90;;;;;;5067442;28;20020;-45
2021/03/14 06:31:54;;;;;;;8.38;2.08;;;4.00;99.90;;;;;;5067504;28;20029;-45
2021/03/14 06:34:34;;;;;;;2.33;1.63;;;4.10;99.90;;;;;;5066390;28;20024;-47
2021/03/14 06:37:16;;;;;;;4.18;1.02;;;4.10;99.90;;;;;;5066149;28;20180;-46
2021/03/14 06:39:49;;;;;;;4.72;2.00;;;4.10;99.90;;;;;;5066703;28;20036;-45
2021/03/14 06:42:29;;;;;;;5.43;1.58;;;4.10;99.90;;;;;;5062100;28;20029;-46
2021/03/14 06:45:06;;;;;;;4.70;1.42;;;4.10;99.90;;;;;;5056752;28;20051;-46
2021/03/14 06:47:38;;;;;;;2.53;1.42;;;4.10;99.90;;;;;;5057600;28;20051;-46
2021/03/14 06:50:05;;;;;;;4.00;1.52;;;4.20;99.90;;;;;;5057373;28;20482;-45
2021/03/14 06:52:31;;;;;;;6.93;1.88;;;4.20;99.90;;;;;;5052809;28;20104;-45
2021/03/14 06:54:57;;;;;;;3.72;1.52;;;4.20;99.90;;;;;;5055144;28;20075;-46
2021/03/14 06:57:22;;;;;;;6.65;1.83;;;4.20;99.90;;;;;;5064506;28;20486;-46
2021/03/14 06:59:52;;;;;;;11.18;2.97;;;4.20;99.90;;;;;;5066930;28;20067;-46
2021/03/14 07:02:22;;;;;;;12.82;1.83;;;4.20;99.90;;;;;;5059236;28;20037;-47
2021/03/14 07:04:53;;;;;;;6.63;1.83;;;4.10;99.90;;;;;;5054667;28;20033;-46
2021/03/14 07:07:21;;;;;;;4.30;1.73;;;4.10;99.90;;;;;;5065468;28;20024;-46
2021/03/14 07:10:14;;;;;;;7.35;1.90;;;4.10;99.90;;;;;;5070991;28;20094;-46
2021/03/14 07:12:44;;;;;;;7.93;2.00;;;4.10;99.90;;;;;;5049834;28;20045;-47
2021/03/14 07:15:22;;;;;;;7.70;2.00;;;4.20;99.90;;;;;;5064933;28;20025;-48
2021/03/14 07:18:00;;;;;;;10.45;2.53;;;4.10;99.90;;;;;;5067645;28;20033;-48
2021/03/14 07:20:30;;;;;;;6.03;2.33;;;4.10;99.90;;;;;;5058463;28;20108;-48
2021/03/14 07:23:07;;;;;;;10.63;3.35;;;4.10;99.90;;;;;;5060625;28;20376;-46
2021/03/14 07:25:36;;;;;;;11.48;3.42;;;4.10;99.90;;;;;;5060440;28;20489;-45
2021/03/14 07:28:02;;;;;;;12.48;3.17;;;4.20;99.90;;;;;;5059556;28;20417;-45
2021/03/14 07:30:28;;;;;;;11.27;3.05;;;4.20;99.90;;;;;;5058592;28;20087;-45
2021/03/14 07:32:55;;;;;;;11.52;3.03;;;4.30;99.90;;;;;;5048942;28;20033;-46
2021/03/14 07:35:21;;;;;;;6.07;3.22;;;4.30;99.90;;;;;;5053881;28;20078;-45
2021/03/14 07:37:53;;;;;;;10.70;3.55;;;4.40;99.90;;;;;;5067601;28;20127;-45
2021/03/14 07:40:25;;;;;;;12.27;2.95;;;4.40;99.90;;;;;;5050068;28;20025;-46
2021/03/14 07:42:56;;;;;;;12.07;3.30;;;4.50;99.90;;;;;;5060522;28;20028;-45
2021/03/14 07:45:21;;;;;;;;;;;4.60;99.90;;;;;;5053274;28;20033;-46
2021/03/14 07:47:47;;;;;;;18.02;4.20;;;4.70;99.90;;;;;;5049746;28;20315;-47
2021/03/14 07:50:35;;;;;;;11.20;3.42;;;4.80;99.90;;;;;;5049936;28;20080;-47
2021/03/14 07:53:07;;;;;;;11.27;4.05;;;4.90;99.90;;;;;;5049849;28;20040;-46
2021/03/14 07:55:33;;;;;;;16.77;4.00;;;4.90;99.90;;;;;;5049392;28;20025;-46
2021/03/14 07:57:59;;;;;;;10.00;3.78;;;5.10;99.90;;;;;;5049407;28;20636;-46
2021/03/14 08:00:33;;;;;;;10.23;4.13;;;5.20;99.90;;;;;;5049901;28;20040;-46
2021/03/14 08:03:02;;;;;;;15.35;4.80;;;5.30;99.90;;;;;;5048187;28;20251;-48
2021/03/14 08:05:39;;;;;;;19.60;4.95;;;5.30;99.90;;;;;;5049185;28;20035;-47
2021/03/14 08:08:06;;;;;;;13.48;4.03;;;5.30;99.90;;;;;;5048513;28;20444;-46
2021/03/14 08:10:40;;;;;;;16.98;4.47;;;5.20;99.90;;;;;;5049008;28;20053;-45
2021/03/14 08:13:14;;;;;;;11.00;4.40;;;5.20;99.90;;;;;;5048837;28;20020;-48
2021/03/14 08:15:39;;;;;;;11.27;5.18;;;5.20;99.90;;;;;;5048821;28;20028;-47
2021/03/14 08:18:05;;;;;;;19.88;5.65;;;5.20;99.90;;;;;;5048409;28;20029;-45
2021/03/14 08:20:35;;;;;;;16.42;5.05;;;5.20;99.90;;;;;;5058664;28;20024;-46
2021/03/14 08:23:02;;;;;;;19.77;5.70;;;5.20;99.90;;;;;;5048150;28;20056;-47
2021/03/14 08:25:30;;;;;;;23.42;6.05;;;5.20;99.90;;;;;;5048917;28;20064;-46
2021/03/14 08:27:58;;;;;;;25.02;5.88;;;5.20;99.90;;;;;;5048966;28;20027;-46
2021/03/14 08:30:29;;;;;;;13.07;5.45;;;5.40;99.90;;;;;;5057198;28;20501;-47
2021/03/14 08:33:17;;;;;;;18.00;6.93;;;5.30;99.90;;;;;;5048610;28;20009;-46
2021/03/14 08:35:50;;;;;;;19.95;6.80;;;5.40;99.90;;;;;;5048418;28;20037;-46
2021/03/14 08:38:25;;;;;;;16.80;6.80;;;5.40;99.90;;;;;;5048759;28;20025;-46
2021/03/14 08:41:24;;;;;;;20.25;7.70;;;5.40;99.90;;;;;;5048423;28;20031;-45
2021/03/14 08:43:55;;;;;;;27.75;9.70;;;5.40;99.90;;;;;;5047256;28;20517;-46
2021/03/14 08:46:41;;;;;;;19.63;7.38;;;5.50;99.90;;;;;;5048371;28;20091;-45
2021/03/14 08:49:07;;;;;;;26.25;8.88;;;5.50;99.90;;;;;;5048051;28;20029;-47
2021/03/14 08:51:32;;;;;;;21.85;8.80;;;5.50;99.90;;;;;;5048877;28;20204;-45
2021/03/14 08:53:58;;;;;;;24.38;9.15;;;5.60;99.90;;;;;;5046247;28;20040;-47
2021/03/14 08:56:24;;;;;;;24.70;8.93;;;5.60;99.90;;;;;;5045493;28;20110;-45
2021/03/14 08:59:04;;;;;;;21.27;8.60;;;5.70;99.90;;;;;;5047657;28;20033;-45
2021/03/14 09:01:29;;;;;;;22.20;8.75;;;5.70;99.90;;;;;;5046937;28;20266;-47
2021/03/14 09:03:55;;;;;;;19.95;7.93;;;5.60;99.90;;;;;;5047285;28;20405;-46
2021/03/14 09:06:26;;;;;;;21.85;8.30;;;5.70;99.90;;;;;;5048595;28;20029;-45
2021/03/14 09:08:53;;;;;;;;;;;5.60;99.90;;;;;;5048577;28;20133;-45
2021/03/14 09:11:56;;;;;;;19.38;7.78;;;5.60;99.90;;;;;;5048931;28;19920;-47
2021/03/14 09:14:35;;;;;;;23.13;7.28;;;5.60;99.90;;;;;;5047454;28;20525;-45
2021/03/14 09:17:14;;;;;;;19.20;7.07;;;5.70;99.90;;;;;;5048360;28;21033;-44
2021/03/14 09:19:49;;;;;;;26.55;8.30;;;5.70;99.90;;;;;;5047105;28;20055;-47
2021/03/14 09:22:23;;;;;;;19.42;7.43;;;5.60;99.90;;;;;;5057336;28;20049;-46
2021/03/14 09:24:50;;;;;;;19.27;7.95;;;5.60;99.90;;;;;;5047303;28;20065;-46
2021/03/14 09:27:21;;;;;;;17.75;6.75;;;5.60;99.90;;;;;;5048888;28;20036;-47
2021/03/14 09:30:08;;;;;;;21.95;6.95;;;5.50;99.90;;;;;;5048051;28;20033;-47
2021/03/14 09:32:50;;;;;;;22.05;7.20;;;5.40;99.90;;;;;;5048273;28;20124;-46
2021/03/14 09:35:35;;;;;;;22.73;9.27;;;5.30;99.90;;;;;;5047846;28;20031;-47
2021/03/14 09:38:14;;;;;;;19.67;7.35;;;5.30;99.90;;;;;;5046250;28;20037;-46
2021/03/14 09:40:48;;;;;;;17.95;8.57;;;5.30;99.90;;;;;;5045897;28;20029;-47
2021/03/14 09:43:23;;;;;;;18.63;8.18;;;5.30;99.90;;;;;;5047122;28;20029;-47
2021/03/14 09:45:52;;;;;;;18.83;8.07;;;5.30;99.90;;;;;;5046976;28;20028;-46
2021/03/14 09:48:20;;;;;;;16.17;7.90;;;5.20;99.90;;;;;;5059452;28;20333;-46
2021/03/14 09:50:53;;;;;;;26.05;9.13;;;5.20;99.90;;;;;;5058498;28;20025;-48
2021/03/14 09:53:22;;;;;;;12.77;7.50;;;5.20;99.90;;;;;;5052571;28;20040;-47
2021/03/14 09:56:04;;;;;;;14.02;7.22;;;5.30;99.90;;;;;;5044924;28;20470;-48
2021/03/14 09:58:30;;;;;;;19.20;7.43;;;5.20;99.90;;;;;;5049940;28;20036;-47
2021/03/14 10:00:58;;;;;;;18.27;6.20;;;5.20;99.90;;;;;;5055398;28;20036;-47
2021/03/14 10:03:28;;;;;;;13.13;5.65;;;5.40;99.90;;;;;;5049417;28;20071;-48
2021/03/14 10:05:55;;;;;;;;;;;5.40;99.90;;;;;;5055626;28;20028;-50
2021/03/14 10:08:26;;;;;;;15.95;4.97;;;5.50;99.90;;;;;;5063713;28;19916;-45
2021/03/14 10:10:55;;;;;;;11.00;4.78;;;5.60;99.90;;;;;;5067348;28;20254;-48
2021/03/14 10:13:24;;;;;;;11.80;4.53;;;5.50;99.90;;;;;;5067698;28;20021;-46
2021/03/14 10:15:53;;;;;;;10.13;5.53;;;5.60;99.90;;;;;;5066687;28;20115;-48
2021/03/14 10:18:24;;;;;;;18.38;5.85;;;5.60;99.90;;;;;;5061272;28;20032;-47
2021/03/14 10:20:51;;;;;;;14.48;6.07;;;5.60;99.90;;;;;;5046420;28;20483;-47
2021/03/14 10:23:24;;;;;;;20.40;6.78;;;5.60;99.90;;;;;;5059646;28;20525;-46
2021/03/14 10:25:50;;;;;;;21.38;5.78;;;5.50;99.90;;;;;;5054420;28;20021;-48
2021/03/14 10:28:18;;;;;;;13.80;5.68;;;5.50;99.90;;;;;;5045875;28;20057;-46
2021/03/14 10:30:46;;;;;;;6.50;4.15;;;5.60;99.90;;;;;;5045326;28;20028;-48
2021/03/14 10:33:30;;;;;;;7.75;3.85;;;5.60;99.90;;;;;;5045510;28;20079;-50
2021/03/14 10:36:09;;;;;;;10.65;3.80;;;6.00;99.90;;;;;;5046316;28;20022;-48
2021/03/14 10:38:52;;;;;;;7.05;3.63;;;6.40;99.90;;;;;;5047395;28;20025;-47
2021/03/14 10:41:23;;;;;;;8.77;3.90;;;6.70;99.90;;;;;;5046293;28;20057;-49
2021/03/14 10:43:58;;;;;;;11.60;3.38;;;6.80;99.90;;;;;;5047043;28;20581;-46
2021/03/14 10:46:40;;;;;;;9.23;3.42;;;7.30;99.90;;;;;;5050706;28;20159;-46
2021/03/14 10:49:12;;;;;;;8.50;2.55;;;7.70;99.90;;;;;;5050351;28;20033;-48
2021/03/14 10:51:39;;;;;;;8.77;2.70;;;7.80;99.90;;;;;;5051020;28;20025;-46
2021/03/14 10:54:09;;;;;;;8.18;1.88;;;7.60;99.90;;;;;;5052854;28;20063;-50
2021/03/14 10:56:47;;;;;;;3.93;1.70;;;7.40;99.90;;;;;;5062118;28;20024;-45
2021/03/14 10:59:32;;;;;;;7.00;1.65;;;7.20;99.90;;;;;;5059472;28;20278;-46
2021/03/14 11:02:14;;;;;;;6.05;2.92;;;6.90;99.90;;;;;;5059699;28;20032;-46
2021/03/14 11:04:40;;;;;;;5.90;1.23;;;6.80;99.90;;;;;;5059481;28;20517;-46
2021/03/14 11:07:27;;;;;;;4.22;1.75;;;7.00;99.90;;;;;;5060882;28;20159;-49
2021/03/14 11:10:06;;;;;;;10.07;1.55;;;7.30;99.90;;;;;;5059422;28;20104;-46
2021/03/14 11:12:33;;;;;;;8.10;1.98;;;7.50;99.90;;;;;;5059703;28;20063;-45
2021/03/14 11:14:59;;;;;;;3.88;1.63;;;7.40;99.90;;;;;;5059434;28;20131;-49
2021/03/14 11:17:29;;;;;;;4.18;1.60;;;7.40;99.90;;;;;;5059225;28;20521;-45
2021/03/14 11:19:55;;;;;;;4.55;1.85;;;7.60;99.90;;;;;;5058615;28;20032;-46
2021/03/14 11:22:21;;;;;;;3.30;1.80;;;8.30;99.90;;;;;;5057524;28;20490;-45
2021/03/14 11:24:48;;;;;;;2.67;1.80;;;9.60;99.90;;;;;;5058299;28;20039;-47
2021/03/14 11:27:14;;;;;;;6.10;2.05;;;11.30;99.90;;;;;;5056237;28;20100;-47
2021/03/14 11:29:41;;;;;;;4.47;1.77;;;12.70;99.90;;;;;;5060080;28;20047;-47
2021/03/14 11:32:10;;;;;;;4.80;2.13;;;13.70;99.90;;;;;;5060626;28;20530;-48
2021/03/14 11:34:40;;;;;;;5.82;2.20;;;14.40;99.90;;;;;;5059717;28;20062;-48
2021/03/14 11:37:07;;;;;;;5.90;2.38;;;15.10;99.10;;;;;;5058896;28;20058;-47
2021/03/14 11:39:33;;;;;;;5.10;2.40;;;15.80;95.90;;;;;;5067354;28;20031;-48
2021/03/14 11:42:00;;;;;;;4.55;2.17;;;15.50;85.50;;;;;;5069068;28;20044;-46
2021/03/14 11:44:26;;;;;;;6.63;2.63;;;15.00;96.40;;;;;;5068344;28;20486;-47
2021/03/14 11:46:52;;;;;;;5.82;2.65;;;15.40;93.90;;;;;;5069542;28;20040;-47
2021/03/14 11:49:18;;;;;;;3.80;1.90;;;15.70;81.10;;;;;;5070228;28;20035;-47
2021/03/14 11:51:44;;;;;;;8.18;2.70;;;14.50;84.70;;;;;;5064132;28;20122;-47
2021/03/14 11:54:16;;;;;;;5.38;2.45;;;13.10;93.50;;;;;;5058734;28;20226;-47
2021/03/14 11:56:43;;;;;;;4.90;2.50;;;12.70;98.90;;;;;;5057649;28;20025;-47
2021/03/14 11:59:08;;;;;;;6.60;2.35;;;13.70;98.00;;;;;;5060010;28;20025;-47
2021/03/14 12:01:34;;;;;;;9.90;2.47;;;13.90;94.10;;;;;;5056606;28;20032;-46
2021/03/14 12:03:59;;;;;;;7.43;2.70;;;13.20;94.20;;;;;;5056266;28;20021;-46
2021/03/14 12:06:25;;;;;;;7.10;2.78;;;12.70;97.00;;;;;;5065664;28;20036;-46
2021/03/14 12:08:50;;;;;;;7.32;2.47;;;11.90;99.90;;;;;;5069536;28;20055;-48
2021/03/14 12:11:17;;;;;;;12.45;2.85;;;11.70;99.90;;;;;;5069657;28;20035;-46
2021/03/14 12:13:42;;;;;;;8.85;2.65;;;11.90;98.40;;;;;;5066859;28;20029;-47
2021/03/14 12:16:09;;;;;;;5.60;2.53;;;12.50;99.90;;;;;;5057463;28;20079;-46
2021/03/14 12:18:34;;;;;;;5.10;1.92;;;12.70;96.50;;;;;;5055882;28;20024;-47
2021/03/14 12:21:00;;;;;;;2.25;1.80;;;12.90;93.50;;;;;;5062048;28;20541;-46
2021/03/14 12:23:26;;;;;;;5.28;2.35;;;12.90;94.10;;;;;;5053924;28;20028;-46
2021/03/14 12:25:52;;;;;;;7.22;2.28;;;12.80;91.80;;;;;;5060591;28;20371;-46
2021/03/14 12:28:18;;;;;;;6.93;1.88;;;12.70;92.20;;;;;;5055892;28;20025;-48
2021/03/14 12:30:44;;;;;;;6.07;2.30;;;12.40;92.30;;;;;;5068841;28;20067;-46
2021/03/14 12:33:09;;;;;;;3.45;2.05;;;11.80;93.00;;;;;;5069361;28;20070;-46
2021/03/14 12:35:36;;;;;;;5.18;2.20;;;11.30;96.40;;;;;;5068515;28;20027;-46
2021/03/14 12:38:02;;;;;;;9.50;2.45;;;10.70;98.20;;;;;;5068802;28;20118;-47
2021/03/14 12:40:29;;;;;;;7.50;2.70;;;10.60;97.90;;;;;;5068461;28;20052;-46
2021/03/14 12:42:55;;;;;;;8.13;2.60;;;10.40;98.20;;;;;;5068561;28;20070;-47
2021/03/14 12:45:22;;;;;;;4.35;1.80;;;10.20;99.90;;;;;;5068002;28;20042;-46
2021/03/14 12:47:48;;;;;;;8.00;2.00;;;10.00;99.90;;;;;;5068956;28;20013;-46
2021/03/14 12:50:14;;;;;;;8.68;2.40;;;10.40;99.90;;;;;;5069012;28;20455;-46
2021/03/14 12:52:39;;;;;;;5.50;2.22;;;11.20;95.80;;;;;;5069180;28;20107;-46
2021/03/14 12:55:06;;;;;;;4.22;2.20;;;11.90;96.10;;;;;;5068042;28;20016;-46
2021/03/14 12:57:32;;;;;;;2.55;2.00;;;12.70;95.70;;;;;;5061984;28;20498;-46
2021/03/14 12:59:57;;;;;;;5.35;2.03;;;13.20;87.70;;;;;;5047229;28;20036;-46
2021/03/14 13:02:23;;;;;;;8.15;1.90;;;13.30;86.80;;;;;;5046922;28;20060;-46